Time;durP1;ratioP1;P1;durP2;ratioP2;P2;SDS_P1;SDS_P2;PMS_P1;PMS_P2;Temp;Humidity;BMP_temperature;BMP_pressure;BME280_temperature;BME280_humidity;BME280_pressure;Samples;Min_cycle;Max_cycle;Signal;HPM_P1;HPM_P2
2022/09/30 00:00:22;;;;;;;4.22;1.35;;;;;;;12.45;99.89;97073.47;5062070;28;22363;-58
2022/09/30 00:02:47;;;;;;;5.38;1.77;;;;;;;12.45;100.00;97094.34;5073992;28;20056;-59
2022/09/30 00:05:13;;;;;;;3.10;1.17;;;;;;;12.40;100.00;97078.47;5062451;28;20059;-59
2022/09/30 00:07:38;;;;;;;3.53;1.25;;;;;;;12.39;100.00;97076.84;5068761;28;20493;-59
2022/09/30 00:10:06;;;;;;;3.35;1.33;;;;;;;12.41;100.00;97087.09;5069543;28;20028;-60
2022/09/30 00:12:31;;;;;;;4.88;1.52;;;;;;;12.39;100.00;97071.63;5062952;28;20089;-59
2022/09/30 00:14:57;;;;;;;4.78;1.30;;;;;;;12.45;100.00;97083.91;5082296;28;20402;-59
2022/09/30 00:17:22;;;;;;;3.10;1.10;;;;;;;12.38;100.00;97075.25;5103151;27;20840;-59
2022/09/30 00:19:47;;;;;;;3.50;1.58;;;;;;;12.42;100.00;97088.69;5063746;28;20491;-59
2022/09/30 00:22:13;;;;;;;5.72;1.10;;;;;;;12.24;100.00;97043.09;5075208;28;20101;-59
2022/09/30 00:24:38;;;;;;;3.28;1.35;;;;;;;12.32;100.00;97068.22;5065905;28;20087;-59
2022/09/30 00:27:03;;;;;;;4.13;1.40;;;;;;;12.13;100.00;97038.44;5065381;28;20751;-58
2022/09/30 00:29:29;;;;;;;4.40;1.50;;;;;;;12.45;100.00;97083.09;5065894;28;20024;-59
2022/09/30 00:31:54;;;;;;;4.50;1.30;;;;;;;12.03;100.00;97036.19;5080443;28;20030;-58
2022/09/30 00:34:20;;;;;;;4.55;1.40;;;;;;;12.26;100.00;97082.78;5076489;28;20028;-58
2022/09/30 00:36:48;;;;;;;3.70;1.42;;;;;;;12.33;100.00;97092.47;5058128;28;20032;-59
2022/09/30 00:39:17;;;;;;;3.10;1.38;;;;;;;12.38;100.00;97100.53;5071476;28;20074;-58
2022/09/30 00:41:44;;;;;;;3.60;1.50;;;;;;;12.26;100.00;97092.41;5057316;28;20120;-58
2022/09/30 00:44:49;;;;;;;4.85;1.35;;;;;;;12.35;100.00;97104.28;5064502;28;20119;-58
2022/09/30 00:47:31;;;;;;;3.60;1.25;;;;;;;12.34;100.00;97101.88;5075011;28;20366;-60
2022/09/30 00:50:04;;;;;;;3.78;1.30;;;;;;;12.19;100.00;97099.41;5079143;28;20507;-60
2022/09/30 00:52:30;;;;;;;3.15;1.20;;;;;;;12.21;100.00;97105.22;5055703;28;20024;-59
2022/09/30 00:54:57;;;;;;;4.43;1.30;;;;;;;12.24;100.00;97110.06;5071208;28;20036;-59
2022/09/30 00:57:23;;;;;;;3.67;1.40;;;;;;;11.95;100.00;97079.81;5072447;28;20054;-60
2022/09/30 00:59:50;;;;;;;3.45;1.20;;;;;;;12.23;100.00;97126.66;5077127;28;20157;-59
2022/09/30 01:02:15;;;;;;;3.20;1.10;;;;;;;12.24;100.00;97136.91;5073016;28;20125;-59
2022/09/30 01:04:41;;;;;;;3.22;1.23;;;;;;;12.22;100.00;97128.47;5072104;28;20036;-59
2022/09/30 01:07:07;;;;;;;2.90;1.10;;;;;;;12.31;100.00;97142.16;5073972;28;20036;-58
2022/09/30 01:09:38;;;;;;;3.83;1.52;;;;;;;12.24;100.00;97131.69;5074253;28;20040;-59
2022/09/30 01:12:14;;;;;;;4.43;1.30;;;;;;;12.30;100.00;97140.53;5086975;27;20039;-59
2022/09/30 01:14:40;;;;;;;3.50;1.25;;;;;;;12.18;100.00;97148.09;5075918;28;20429;-59
2022/09/30 01:17:25;;;;;;;3.10;1.20;;;;;;;12.35;100.00;97156.44;5083324;28;20120;-58
2022/09/30 01:20:02;;;;;;;3.03;1.20;;;;;;;12.11;100.00;97124.59;5068369;28;20037;-59
2022/09/30 01:22:51;;;;;;;3.13;1.40;;;;;;;12.34;100.00;97154.84;5079472;28;20043;-59
2022/09/30 01:25:52;;;;;;;4.10;1.30;;;;;;;12.32;100.00;97162.03;5069327;28;20135;-59
2022/09/30 01:28:36;;;;;;;3.40;1.30;;;;;;;12.37;100.00;97158.84;5036157;28;20756;-59
2022/09/30 01:31:31;;;;;;;3.28;1.45;;;;;;;12.45;100.00;97169.94;5062111;28;20246;-59
2022/09/30 01:34:11;;;;;;;3.35;1.00;;;;;;;12.46;100.00;97168.13;5070252;28;20395;-59
2022/09/30 01:36:45;;;;;;;3.15;1.10;;;;;;;12.56;98.39;97170.38;5069915;28;20040;-59
2022/09/30 01:39:23;;;;;;;3.13;1.08;;;;;;;12.56;99.74;97173.81;5067058;28;20086;-59
2022/09/30 01:42:17;;;;;;;3.13;1.13;;;;;;;12.57;99.55;97172.78;5060194;28;20032;-59
2022/09/30 01:44:52;;;;;;;3.08;1.13;;;;;;;12.49;99.36;97168.53;5066541;28;20254;-59
2022/09/30 01:47:26;;;;;;;3.25;1.38;;;;;;;12.54;98.89;97172.38;5053295;28;20369;-59
2022/09/30 01:50:15;;;;;;;3.55;1.20;;;;;;;12.55;98.59;97179.22;5063496;28;20070;-58
2022/09/30 01:52:51;;;;;;;2.78;1.08;;;;;;;12.50;97.99;97167.56;5060436;28;20036;-59
2022/09/30 01:55:22;;;;;;;4.22;1.30;;;;;;;12.44;98.99;97185.75;5080278;28;20028;-59
2022/09/30 01:57:56;;;;;;;3.42;1.27;;;;;;;12.45;98.91;97187.38;5085551;28;20048;-58
2022/09/30 02:00:21;;;;;;;2.80;1.30;;;;;;;12.44;98.96;97191.78;5075379;28;20040;-58
2022/09/30 02:03:15;;;;;;;5.13;1.20;;;;;;;12.52;99.27;97190.00;5069758;28;20405;-59
2022/09/30 02:06:05;;;;;;;3.03;1.10;;;;;;;12.48;99.14;97187.81;5068348;28;20111;-58
2022/09/30 02:08:45;;;;;;;2.58;1.00;;;;;;;12.44;99.26;97191.78;5075303;28;20059;-59
2022/09/30 02:11:13;;;;;;;;;;;;;;;12.50;99.52;97193.63;5065857;28;20111;-58
2022/09/30 02:13:48;;;;;;;2.97;1.20;;;;;;;12.52;99.81;97200.44;5071684;28;19931;-58
2022/09/30 02:16:18;;;;;;;3.08;1.30;;;;;;;12.44;100.00;97196.97;5065223;28;20055;-59
2022/09/30 02:18:50;;;;;;;3.25;1.20;;;;;;;12.38;100.00;97195.16;5070516;28;20027;-59
2022/09/30 02:21:21;;;;;;;3.22;1.20;;;;;;;12.33;100.00;97210.53;5069848;28;20032;-58
2022/09/30 02:23:48;;;;;;;3.25;1.20;;;;;;;12.29;100.00;97199.69;5068400;28;20019;-59
2022/09/30 02:26:36;;;;;;;3.20;1.27;;;;;;;12.27;100.00;97196.47;5089824;28;20025;-58
2022/09/30 02:29:20;;;;;;;4.53;1.30;;;;;;;12.24;100.00;97203.88;5075832;28;20120;-59
2022/09/30 02:31:49;;;;;;;3.72;1.10;;;;;;;12.24;100.00;97203.88;5061327;28;20089;-60
2022/09/30 02:34:19;;;;;;;2.78;1.10;;;;;;;12.18;100.00;97208.03;5072504;28;20024;-60
2022/09/30 02:37:09;;;;;;;3.30;1.40;;;;;;;12.02;100.00;97182.25;5061342;28;20097;-59
2022/09/30 02:39:49;;;;;;;3.13;1.23;;;;;;;12.26;100.00;97207.09;5078158;28;20111;-59
2022/09/30 02:42:19;;;;;;;;;;;;;;;12.31;100.00;97204.72;5075914;28;20028;-60
2022/09/30 02:44:49;;;;;;;2.80;1.00;;;;;;;12.11;100.00;97201.97;5066862;28;19912;-60
2022/09/30 02:47:33;;;;;;;5.20;1.73;;;;;;;12.17;100.00;97203.00;5071677;28;20533;-58
2022/09/30 02:50:07;;;;;;;3.40;1.23;;;;;;;12.23;100.00;97204.84;5054219;28;20039;-59
2022/09/30 02:52:41;;;;;;;3.70;1.20;;;;;;;12.24;100.00;97203.88;5050298;28;20029;-59
2022/09/30 02:55:28;;;;;;;4.63;1.20;;;;;;;12.31;100.00;97195.09;5074694;27;20031;-60
2022/09/30 02:58:03;;;;;;;3.53;1.10;;;;;;;12.28;100.00;97190.28;5070257;28;20028;-59
2022/09/30 03:00:29;;;;;;;2.47;1.10;;;;;;;12.26;100.00;97199.28;5063432;28;20577;-59
2022/09/30 03:03:00;;;;;;;3.20;1.13;;;;;;;12.16;100.00;97180.56;5083152;28;20112;-59
2022/09/30 03:05:27;;;;;;;3.30;1.10;;;;;;;12.11;100.00;97184.53;5063032;28;20047;-58
2022/09/30 03:07:52;;;;;;;4.60;1.23;;;;;;;12.17;100.00;97192.59;5072398;28;20024;-59
2022/09/30 03:10:18;;;;;;;3.35;1.20;;;;;;;12.26;100.00;97184.44;5096018;27;20044;-59
2022/09/30 03:13:22;;;;;;;3.30;1.00;;;;;;;12.24;100.00;97183.03;5067746;28;20470;-58
2022/09/30 03:16:31;;;;;;;3.00;0.98;;;;;;;12.20;100.00;97192.22;5072646;28;20028;-59
2022/09/30 03:19:05;;;;;;;3.45;1.20;;;;;;;12.24;100.00;97190.84;5018339;28;20075;-58
2022/09/30 03:21:46;;;;;;;4.13;1.30;;;;;;;12.02;100.00;97141.38;5060012;28;20086;-59
2022/09/30 03:24:50;;;;;;;3.08;1.00;;;;;;;12.38;100.00;97191.75;5073452;28;20028;-59
2022/09/30 03:27:50;;;;;;;3.75;1.20;;;;;;;12.48;100.00;97206.06;5062347;28;20512;-59
2022/09/30 03:30:19;;;;;;;5.65;1.38;;;;;;;12.54;100.00;97225.34;5036331;28;20044;-59
2022/09/30 03:33:09;;;;;;;3.58;1.20;;;;;;;12.52;100.00;97234.31;5075498;28;20020;-59
2022/09/30 03:35:38;;;;;;;2.85;1.00;;;;;;;12.55;100.00;97250.41;5074448;28;20024;-59
2022/09/30 03:38:27;;;;;;;3.83;1.20;;;;;;;12.47;100.00;97256.56;5054071;28;20033;-60
2022/09/30 03:40:58;;;;;;;3.80;1.42;;;;;;;12.55;100.00;97258.22;5069732;28;20036;-59
2022/09/30 03:43:30;;;;;;;3.40;1.27;;;;;;;12.55;100.00;97263.44;5072252;28;20148;-59
2022/09/30 03:46:16;;;;;;;4.20;1.73;;;;;;;12.41;100.00;97267.75;5065525;28;20139;-59
2022/09/30 03:48:42;;;;;;;4.15;1.30;;;;;;;12.17;100.00;97239.50;5043358;28;20090;-59
2022/09/30 03:51:07;;;;;;;5.22;1.58;;;;;;;12.41;100.00;97293.84;5080050;28;20074;-60
2022/09/30 03:53:40;;;;;;;5.40;1.40;;;;;;;12.36;100.00;97306.63;5074710;28;20804;-59
2022/09/30 03:56:06;;;;;;;4.28;1.42;;;;;;;12.44;100.00;97309.06;5068984;28;20020;-59
2022/09/30 03:58:31;;;;;;;3.22;1.02;;;;;;;12.18;100.00;97278.41;5049366;28;20047;-60
2022/09/30 04:00:57;;;;;;;3.03;1.00;;;;;;;12.45;100.00;97315.91;5046986;28;20032;-59
2022/09/30 04:03:25;;;;;;;3.22;1.00;;;;;;;12.33;100.00;97275.69;5068774;28;20065;-60
2022/09/30 04:05:50;;;;;;;4.60;1.08;;;;;;;12.43;100.00;97302.25;5068843;28;20021;-59
2022/09/30 04:08:16;;;;;;;4.45;1.10;;;;;;;12.45;100.00;97313.31;5099995;27;20453;-58
2022/09/30 04:10:45;;;;;;;3.35;1.35;;;;;;;12.38;100.00;97299.41;5055352;28;20383;-57
2022/09/30 04:13:11;;;;;;;3.60;1.25;;;;;;;12.56;100.00;97308.56;5066258;28;20752;-57
2022/09/30 04:15:37;;;;;;;3.33;1.00;;;;;;;12.28;100.00;97265.03;5108252;27;20031;-57
2022/09/30 04:18:03;;;;;;;3.60;1.10;;;;;;;12.42;100.00;97305.84;5073732;28;20039;-57
2022/09/30 04:20:29;;;;;;;3.70;1.17;;;;;;;12.36;100.00;97306.63;5069407;28;20505;-58
2022/09/30 04:23:01;;;;;;;4.75;1.30;;;;;;;12.34;100.00;97306.00;5101973;27;20024;-56
2022/09/30 04:25:27;;;;;;;4.18;1.20;;;;;;;12.33;100.00;97295.75;5075866;28;20024;-57
2022/09/30 04:27:53;;;;;;;3.47;1.27;;;;;;;12.31;100.00;97301.16;5055062;28;20115;-58
2022/09/30 04:30:19;;;;;;;2.97;1.08;;;;;;;12.15;100.00;97311.84;5074674;28;20062;-57
2022/09/30 04:32:44;;;;;;;3.22;1.10;;;;;;;12.14;100.00;97305.81;5066138;28;20107;-57
2022/09/30 04:35:14;;;;;;;4.25;1.40;;;;;;;12.23;100.00;97316.91;5072526;28;20032;-58
2022/09/30 04:37:46;;;;;;;3.90;1.33;;;;;;;12.20;100.00;97325.13;5058189;28;20043;-57
2022/09/30 04:40:13;;;;;;;4.63;1.50;;;;;;;12.26;100.00;97338.19;5051661;28;20036;-57
2022/09/30 04:42:41;;;;;;;7.05;1.50;;;;;;;12.11;100.00;97327.81;5071688;28;20031;-58
2022/09/30 04:45:11;;;;;;;5.75;1.60;;;;;;;12.02;100.00;97300.28;5067578;28;20028;-57
2022/09/30 04:47:37;;;;;;;4.35;1.30;;;;;;;12.12;100.00;97341.69;5076847;28;20113;-57
2022/09/30 04:50:04;;;;;;;4.20;1.25;;;;;;;12.08;100.00;97350.84;5068401;28;20162;-58
2022/09/30 04:52:29;;;;;;;5.72;1.40;;;;;;;12.11;100.00;97350.47;5075964;28;20031;-57
2022/09/30 04:54:55;;;;;;;4.95;1.60;;;;;;;11.99;100.00;97357.16;5076042;28;20110;-58
2022/09/30 04:57:20;;;;;;;4.30;1.48;;;;;;;11.66;100.00;97319.34;5073000;28;20115;-56
2022/09/30 04:59:45;;;;;;;4.88;1.63;;;;;;;11.81;100.00;97360.97;5053604;28;20099;-57
2022/09/30 05:02:12;;;;;;;4.75;1.38;;;;;;;11.70;100.00;97353.59;5081847;28;20135;-57
2022/09/30 05:04:38;;;;;;;4.00;1.30;;;;;;;11.28;100.00;97313.44;5067294;28;20378;-57
2022/09/30 05:07:07;;;;;;;3.97;1.27;;;;;;;11.45;100.00;97364.31;5065381;27;20032;-56
2022/09/30 05:09:33;;;;;;;4.03;1.30;;;;;;;11.51;100.00;97386.22;5072744;28;20114;-58
2022/09/30 05:12:00;;;;;;;4.72;1.40;;;;;;;11.43;100.00;97381.91;5071411;28;20096;-58
2022/09/30 05:14:26;;;;;;;4.43;1.10;;;;;;;11.44;100.00;97395.72;5069761;28;20064;-57
2022/09/30 05:16:51;;;;;;;2.88;1.20;;;;;;;11.55;100.00;97392.66;5068415;28;20067;-58
2022/09/30 05:19:16;;;;;;;3.63;1.20;;;;;;;11.53;100.00;97397.25;5052298;28;20052;-56
2022/09/30 05:21:43;;;;;;;3.80;1.35;;;;;;;11.47;100.00;97393.56;5065673;28;20878;-58
2022/09/30 05:24:09;;;;;;;2.90;1.17;;;;;;;11.26;100.00;97365.69;5068233;28;20090;-58
2022/09/30 05:26:35;;;;;;;3.05;1.25;;;;;;;11.51;100.00;97404.44;5076591;28;20101;-56
2022/09/30 05:29:00;;;;;;;2.92;1.10;;;;;;;11.28;100.00;97370.69;5056692;28;20028;-58
2022/09/30 05:31:26;;;;;;;3.35;1.30;;;;;;;11.48;100.00;97412.59;5101790;27;20039;-57
2022/09/30 05:33:54;;;;;;;4.03;1.40;;;;;;;11.40;100.00;97412.69;5069937;28;20108;-57
2022/09/30 05:36:19;;;;;;;2.92;1.13;;;;;;;11.49;100.00;97435.06;5070259;28;20064;-58
2022/09/30 05:38:45;;;;;;;4.60;1.40;;;;;;;11.52;100.00;97429.50;5068733;28;20103;-58
2022/09/30 05:41:12;;;;;;;3.55;1.35;;;;;;;11.54;100.00;97419.72;5065040;28;20024;-57
2022/09/30 05:43:39;;;;;;;3.53;1.30;;;;;;;11.35;100.00;97390.63;5043620;28;20028;-57
2022/09/30 05:46:06;;;;;;;3.92;1.40;;;;;;;11.39;100.00;97388.47;5060140;28;20529;-59
2022/09/30 05:48:31;;;;;;;4.30;1.25;;;;;;;11.49;100.00;97432.44;5071350;28;20043;-58
2022/09/30 05:51:00;;;;;;;2.92;1.15;;;;;;;11.37;100.00;97442.47;5056367;28;20089;-57
2022/09/30 05:53:26;;;;;;;3.17;1.20;;;;;;;11.27;100.00;97440.16;5067335;28;20037;-58
2022/09/30 05:55:52;;;;;;;4.85;1.40;;;;;;;11.32;100.00;97450.84;5070290;28;20425;-56
2022/09/30 05:58:17;;;;;;;4.28;1.10;;;;;;;11.30;100.00;97458.00;5056501;28;20535;-58
2022/09/30 06:00:45;;;;;;;3.55;1.13;;;;;;;11.04;100.00;97421.97;5049140;28;20063;-57
2022/09/30 06:03:11;;;;;;;3.35;1.02;;;;;;;11.29;100.00;97443.38;4994692;28;20983;-57
2022/09/30 06:05:36;;;;;;;2.83;1.08;;;;;;;11.30;100.00;97460.63;5068988;28;20905;-57
2022/09/30 06:08:02;;;;;;;3.40;1.20;;;;;;;11.26;100.00;97448.94;5067783;28;20032;-57
2022/09/30 06:10:28;;;;;;;3.80;1.10;;;;;;;11.15;100.00;97454.56;5052107;28;20040;-58
2022/09/30 06:12:53;;;;;;;3.38;1.20;;;;;;;11.18;100.00;97458.63;5054566;28;20081;-56
2022/09/30 06:15:19;;;;;;;4.22;1.05;;;;;;;11.26;100.00;97454.16;5066312;28;20122;-58
2022/09/30 06:17:45;;;;;;;2.75;1.02;;;;;;;11.22;100.00;97462.47;5064532;28;20416;-58
2022/09/30 06:20:11;;;;;;;3.15;0.95;;;;;;;11.28;100.00;97466.97;5015317;28;20437;-57
2022/09/30 06:22:36;;;;;;;3.22;1.25;;;;;;;11.20;100.00;97470.44;5055197;28;20028;-59
2022/09/30 06:25:04;;;;;;;3.70;1.20;;;;;;;11.20;100.00;97477.47;5059162;28;20029;-57
2022/09/30 06:27:30;;;;;;;2.70;0.98;;;;;;;11.12;100.00;97478.34;5069847;28;20043;-57
2022/09/30 06:29:56;;;;;;;3.17;0.90;;;;;;;11.03;100.00;97475.00;5068315;28;20494;-57
2022/09/30 06:32:21;;;;;;;3.10;0.95;;;;;;;10.80;100.00;97438.59;5063925;28;20033;-57
2022/09/30 06:34:47;;;;;;;4.82;1.40;;;;;;;10.80;100.00;97450.78;5078095;28;20024;-58
2022/09/30 06:37:14;;;;;;;3.53;1.08;;;;;;;10.95;100.00;97493.25;5064051;28;20036;-57
2022/09/30 06:39:40;;;;;;;3.45;1.20;;;;;;;10.98;100.00;97487.72;5050748;28;20028;-57
2022/09/30 06:42:06;;;;;;;3.20;1.00;;;;;;;10.99;100.00;97502.34;5087213;28;20407;-58
2022/09/30 06:44:32;;;;;;;2.90;1.10;;;;;;;10.95;100.00;97486.28;5063370;28;20206;-58
2022/09/30 06:46:59;;;;;;;3.03;1.00;;;;;;;10.77;100.00;97462.38;5046501;28;20032;-57
2022/09/30 06:49:25;;;;;;;3.20;1.05;;;;;;;11.01;100.00;97502.97;5084999;28;20028;-57
2022/09/30 06:51:51;;;;;;;2.97;1.20;;;;;;;11.04;100.00;97512.22;5070288;28;20030;-57
2022/09/30 06:54:18;;;;;;;2.65;0.90;;;;;;;11.20;100.00;97519.88;5064787;28;20020;-57
2022/09/30 06:56:44;;;;;;;3.80;1.35;;;;;;;11.02;100.00;97499.38;5060734;28;20064;-57
2022/09/30 06:59:10;;;;;;;4.18;1.20;;;;;;;11.09;100.00;97522.91;5067038;28;20024;-58
2022/09/30 07:01:35;;;;;;;2.65;0.88;;;;;;;11.15;100.00;97530.00;5067262;28;20039;-58
2022/09/30 07:04:06;;;;;;;3.95;1.20;;;;;;;11.12;100.00;97518.16;5051816;28;20082;-57
2022/09/30 07:06:32;;;;;;;6.30;1.20;;;;;;;11.27;100.00;97544.22;5065919;28;20115;-58
2022/09/30 07:08:57;;;;;;;3.58;1.20;;;;;;;11.21;100.00;97536.31;5061933;28;20111;-58
2022/09/30 07:11:23;;;;;;;4.28;1.20;;;;;;;11.19;100.00;97546.06;5068291;28;20035;-57
2022/09/30 07:13:49;;;;;;;3.80;1.00;;;;;;;11.08;100.00;97537.72;5068111;28;20054;-56
2022/09/30 07:16:17;;;;;;;3.40;1.08;;;;;;;11.20;100.00;97545.91;5095641;27;20032;-58
2022/09/30 07:18:44;;;;;;;3.90;1.42;;;;;;;11.14;100.00;97549.22;5065452;28;20047;-57
2022/09/30 07:21:12;;;;;;;2.88;0.95;;;;;;;11.08;100.00;97562.91;5056005;28;20055;-56
2022/09/30 07:23:41;;;;;;;3.78;0.90;;;;;;;11.06;100.00;97564.88;4997366;28;21872;-56
2022/09/30 07:26:07;;;;;;;3.70;1.00;;;;;;;11.07;100.00;97563.91;5051939;28;20338;-56
2022/09/30 07:28:34;;;;;;;3.20;0.95;;;;;;;11.05;100.00;97564.06;5071017;28;20120;-57
2022/09/30 07:31:05;;;;;;;3.40;1.17;;;;;;;11.07;100.00;97569.91;5055937;28;20016;-57
2022/09/30 07:33:32;;;;;;;3.50;1.20;;;;;;;11.02;100.00;97563.59;5065595;28;20032;-57
2022/09/30 07:35:59;;;;;;;3.47;1.08;;;;;;;11.06;100.00;97564.88;5065873;28;20033;-56
2022/09/30 07:38:28;;;;;;;2.80;0.93;;;;;;;11.11;100.00;97573.78;5083928;28;20122;-57
2022/09/30 07:40:59;;;;;;;3.47;1.10;;;;;;;11.14;100.00;97577.84;5069582;28;20024;-57
2022/09/30 07:43:33;;;;;;;3.30;0.93;;;;;;;11.14;100.00;97588.25;4986095;28;20036;-57
2022/09/30 07:46:03;;;;;;;2.95;1.00;;;;;;;11.13;100.00;97578.81;5053889;28;20040;-55
2022/09/30 07:48:46;;;;;;;4.47;1.50;;;;;;;11.09;100.00;97580.13;5071744;28;20032;-56
2022/09/30 07:51:15;;;;;;;6.57;2.30;;;;;;;11.12;100.00;97592.81;5057958;28;20035;-57
2022/09/30 07:53:44;;;;;;;7.72;3.25;;;;;;;11.16;100.00;97597.47;5066913;28;20025;-57
2022/09/30 07:56:09;;;;;;;5.80;2.43;;;;;;;11.24;100.00;97601.00;5074241;28;20028;-57
2022/09/30 07:58:35;;;;;;;5.55;2.17;;;;;;;11.28;100.00;97597.91;5095390;27;20027;-57
2022/09/30 08:01:01;;;;;;;3.05;1.15;;;;;;;11.27;100.00;97603.28;5048900;28;20058;-58
2022/09/30 08:03:27;;;;;;;6.32;2.03;;;;;;;11.20;100.00;97610.97;5001973;28;20115;-57
2022/09/30 08:05:53;;;;;;;3.72;1.50;;;;;;;11.16;100.00;97609.69;5048713;28;20408;-58
2022/09/30 08:08:18;;;;;;;2.47;0.75;;;;;;;11.15;100.00;97608.06;5056284;28;20590;-56
2022/09/30 08:10:44;;;;;;;3.13;0.70;;;;;;;11.14;100.00;97609.84;5071057;28;20058;-57
2022/09/30 08:13:12;;;;;;;2.45;0.80;;;;;;;11.26;100.00;97623.28;5084104;27;20441;-57
2022/09/30 08:15:38;;;;;;;2.08;0.68;;;;;;;11.26;100.00;97623.28;5059921;28;20031;-57
2022/09/30 08:18:04;;;;;;;2.90;0.80;;;;;;;11.25;100.00;97626.88;5053879;28;20032;-57
2022/09/30 08:20:30;;;;;;;3.65;0.80;;;;;;;11.25;100.00;97621.66;5046411;27;20035;-56
2022/09/30 08:22:57;;;;;;;1.67;0.40;;;;;;;11.21;100.00;97628.19;5057858;28;20105;-57
2022/09/30 08:25:22;;;;;;;4.38;0.90;;;;;;;11.26;100.00;97636.31;5061692;28;20036;-57
2022/09/30 08:27:48;;;;;;;2.33;0.60;;;;;;;11.23;100.00;97639.25;5072264;28;20031;-56
2022/09/30 08:30:14;;;;;;;2.63;0.80;;;;;;;10.99;100.00;97600.34;5075667;28;20040;-56
2022/09/30 08:32:39;;;;;;;3.67;0.90;;;;;;;10.92;100.00;97590.66;5062004;28;20621;-56
2022/09/30 08:35:05;;;;;;;2.47;0.70;;;;;;;11.19;100.00;97650.16;5087272;27;20020;-56
2022/09/30 08:37:31;;;;;;;1.55;0.50;;;;;;;11.17;100.00;97650.34;5069408;28;20021;-57
2022/09/30 08:39:56;;;;;;;2.83;0.70;;;;;;;10.92;100.00;97616.66;4999981;28;20028;-56
2022/09/30 08:42:41;;;;;;;2.22;0.50;;;;;;;11.11;100.00;97649.22;5084898;28;20044;-57
2022/09/30 08:45:29;;;;;;;2.58;0.70;;;;;;;10.99;100.00;97632.41;5070365;28;20035;-57
2022/09/30 08:48:16;;;;;;;2.45;0.80;;;;;;;11.24;100.00;97682.47;5063591;28;21142;-56
2022/09/30 08:50:55;;;;;;;4.63;1.13;;;;;;;11.00;100.00;97648.81;5066896;28;20025;-57
2022/09/30 08:53:33;;;;;;;1.85;0.70;;;;;;;11.10;100.00;97683.22;5047102;28;20575;-57
2022/09/30 08:56:01;;;;;;;2.15;0.73;;;;;;;11.12;100.00;97694.28;5052967;28;20464;-57
2022/09/30 08:58:30;;;;;;;2.35;0.65;;;;;;;11.11;100.00;97690.84;4999540;28;20162;-58
2022/09/30 09:01:31;;;;;;;2.70;0.80;;;;;;;11.03;100.00;97706.50;5055330;28;20031;-57
2022/09/30 09:03:58;;;;;;;3.20;0.93;;;;;;;10.99;100.00;97699.19;5012030;28;20048;-56
2022/09/30 09:06:56;;;;;;;4.78;1.27;;;;;;;10.94;100.00;97697.91;5073627;28;20024;-56
2022/09/30 09:09:37;;;;;;;5.00;1.30;;;;;;;11.01;100.00;97710.28;5068690;28;20043;-56
2022/09/30 09:12:13;;;;;;;2.78;0.88;;;;;;;11.00;100.00;97713.84;5070032;28;20073;-56
2022/09/30 09:15:14;;;;;;;3.25;1.05;;;;;;;10.89;100.00;97702.81;5061543;28;20088;-55
2022/09/30 09:18:01;;;;;;;3.92;1.08;;;;;;;10.90;100.00;97716.66;5063152;28;20012;-56
2022/09/30 09:20:35;;;;;;;3.72;1.75;;;;;;;10.87;100.00;97733.38;5070001;28;20035;-57
2022/09/30 09:23:02;;;;;;;2.80;0.88;;;;;;;10.89;100.00;97723.63;5055926;28;20036;-55
2022/09/30 09:25:28;;;;;;;3.00;0.88;;;;;;;10.88;100.00;97735.00;5070664;28;20066;-57
2022/09/30 09:27:59;;;;;;;3.47;0.70;;;;;;;10.87;100.00;97735.19;5070438;28;20414;-57
2022/09/30 09:30:32;;;;;;;3.03;0.80;;;;;;;10.83;100.00;97731.31;5069157;28;20036;-57
2022/09/30 09:33:14;;;;;;;2.78;0.70;;;;;;;10.94;100.00;97743.94;5079892;27;20047;-57
2022/09/30 09:35:40;;;;;;;2.40;1.00;;;;;;;10.71;100.00;97725.63;5050808;28;20035;-57
2022/09/30 09:38:25;;;;;;;2.50;0.70;;;;;;;10.82;100.00;97756.47;5021823;28;20055;-56
2022/09/30 09:41:04;;;;;;;2.65;0.80;;;;;;;10.89;100.00;97759.22;5097590;27;20032;-57
2022/09/30 09:43:42;;;;;;;2.88;0.93;;;;;;;10.95;100.00;97763.75;5080867;28;20059;-57
2022/09/30 09:46:21;;;;;;;3.35;0.90;;;;;;;10.63;100.00;97720.47;5058673;28;20711;-57
2022/09/30 09:48:46;;;;;;;3.70;1.02;;;;;;;10.89;100.00;97756.63;5062402;28;20036;-57
2022/09/30 09:51:31;;;;;;;3.83;1.10;;;;;;;10.89;100.00;97757.44;5067044;28;20105;-57
2022/09/30 09:53:59;;;;;;;3.58;1.00;;;;;;;10.88;100.00;97768.00;5061051;28;20104;-58
2022/09/30 09:56:29;;;;;;;2.63;0.90;;;;;;;10.94;100.00;97781.16;5048375;27;20110;-61
2022/09/30 09:59:14;;;;;;;6.28;1.00;;;;;;;10.94;100.00;97786.34;5062442;28;20102;-56
2022/09/30 10:01:49;;;;;;;2.92;0.88;;;;;;;10.70;100.00;97745.63;5073393;28;20483;-56
2022/09/30 10:04:20;;;;;;;1.67;0.50;;;;;;;10.96;100.00;97787.00;5067438;28;20028;-56
2022/09/30 10:06:51;;;;;;;1.90;0.50;;;;;;;10.77;100.00;97756.19;5087476;28;20391;-57
2022/09/30 10:09:37;;;;;;;3.53;0.90;;;;;;;10.99;100.00;97798.03;5065850;28;20028;-56
2022/09/30 10:12:06;;;;;;;2.15;0.70;;;;;;;10.98;100.00;97788.63;5067224;28;20666;-56
2022/09/30 10:14:34;;;;;;;3.25;0.80;;;;;;;10.96;100.00;97797.41;5066139;28;20035;-56
2022/09/30 10:17:02;;;;;;;2.20;0.70;;;;;;;10.86;100.00;97795.97;5067874;28;20475;-57
2022/09/30 10:19:30;;;;;;;1.70;0.45;;;;;;;10.91;100.00;97806.69;5063240;28;20035;-57
2022/09/30 10:22:17;;;;;;;1.98;0.80;;;;;;;10.89;100.00;97808.63;5056988;28;20681;-57
2022/09/30 10:24:42;;;;;;;3.22;1.13;;;;;;;10.71;100.00;97801.84;5070492;28;20032;-57
2022/09/30 10:27:30;;;;;;;1.48;0.50;;;;;;;10.68;100.00;97816.97;5063674;28;20035;-56
2022/09/30 10:29:55;;;;;;;3.67;0.80;;;;;;;10.64;100.00;97823.47;5056602;28;20016;-56
2022/09/30 10:32:22;;;;;;;4.78;1.13;;;;;;;10.58;100.00;97810.13;5052579;28;20628;-58
2022/09/30 10:34:54;;;;;;;2.75;0.98;;;;;;;10.67;100.00;97823.94;5030530;28;20107;-56
2022/09/30 10:37:22;;;;;;;2.72;0.70;;;;;;;10.60;100.00;97830.78;5072097;28;20061;-57
2022/09/30 10:39:56;;;;;;;2.78;0.70;;;;;;;10.56;100.00;97825.09;5056639;28;20047;-56
2022/09/30 10:42:25;;;;;;;2.40;0.80;;;;;;;10.56;100.00;97825.09;5070061;28;20047;-56
2022/09/30 10:44:57;;;;;;;3.55;0.98;;;;;;;10.69;100.00;97839.38;5057649;28;20059;-56
2022/09/30 10:47:27;;;;;;;2.03;0.68;;;;;;;10.48;100.00;97801.72;5070720;28;20055;-57
2022/09/30 10:50:11;;;;;;;3.50;0.80;;;;;;;10.69;100.00;97835.00;5057258;28;20031;-57
2022/09/30 10:52:43;;;;;;;2.72;1.00;;;;;;;10.70;100.00;97834.03;5074749;28;20442;-57
2022/09/30 10:55:47;;;;;;;4.20;1.40;;;;;;;10.80;100.00;97835.63;5066119;28;20509;-56
2022/09/30 10:58:43;;;;;;;3.63;1.23;;;;;;;10.79;100.00;97842.63;5053740;28;20048;-57
2022/09/30 11:01:26;;;;;;;2.08;0.80;;;;;;;10.75;100.00;97841.31;5072797;28;20020;-56
2022/09/30 11:03:54;;;;;;;3.15;1.10;;;;;;;10.58;100.00;97799.75;5100351;27;20034;-57
2022/09/30 11:06:23;;;;;;;3.13;0.82;;;;;;;10.42;100.00;97794.56;5069431;28;20542;-57
2022/09/30 11:09:01;;;;;;;3.22;0.95;;;;;;;10.70;100.00;97841.03;5071927;28;20061;-56
2022/09/30 11:11:32;;;;;;;1.90;0.80;;;;;;;10.70;100.00;97835.81;5032391;28;20032;-57
2022/09/30 11:14:10;;;;;;;2.08;0.60;;;;;;;10.71;100.00;97834.84;5059640;28;20021;-58
2022/09/30 11:17:02;;;;;;;2.33;0.85;;;;;;;10.75;100.00;97836.13;5070675;28;20086;-58
2022/09/30 11:19:32;;;;;;;1.58;0.70;;;;;;;10.52;100.00;97797.00;5069778;28;20024;-57
2022/09/30 11:22:08;;;;;;;3.13;1.00;;;;;;;10.76;100.00;97841.16;5070882;28;20150;-56
2022/09/30 11:24:45;;;;;;;2.25;0.85;;;;;;;10.75;100.00;97842.16;5071532;28;20040;-58
2022/09/30 11:27:13;;;;;;;1.98;0.70;;;;;;;10.58;100.00;97802.34;5071465;28;20039;-57
2022/09/30 11:29:54;;;;;;;2.45;0.80;;;;;;;10.78;100.00;97844.41;5019438;28;20119;-59
2022/09/30 11:32:40;;;;;;;3.45;0.77;;;;;;;10.66;100.00;97816.31;5077983;28;20036;-58
2022/09/30 11:35:40;;;;;;;2.67;0.60;;;;;;;10.87;100.00;97860.00;5078615;28;20063;-57
2022/09/30 11:38:33;;;;;;;3.42;0.70;;;;;;;10.87;100.00;97852.22;5076326;28;20348;-56
2022/09/30 11:41:13;;;;;;;2.10;0.63;;;;;;;10.87;100.00;97850.41;5111502;27;20031;-58
2022/09/30 11:43:57;;;;;;;;;;;;;;;10.96;100.00;97853.81;5075304;28;20031;-57
2022/09/30 11:46:54;;;;;;;6.65;2.72;;;;;;;10.95;100.00;97858.22;5102820;27;20378;-58
2022/09/30 11:49:50;;;;;;;2.38;0.85;;;;;;;11.04;100.00;97860.78;5050605;28;20043;-59